Time;durP1;ratioP1;P1;durP2;ratioP2;P2;SDS_P1;SDS_P2;PMS_P1;PMS_P2;Temp;Humidity;BMP_temperature;BMP_pressure;BME280_temperature;BME280_humidity;BME280_pressure;Samples;Min_cycle;Max_cycle;Signal;HPM_P1;HPM_P2
2021/04/12 00:00:33;;;;;;;6.70;3.33;;;9.60;77.20;;;;;;4981438;28;20475;-80
2021/04/12 00:03:11;;;;;;;6.03;2.42;;;9.50;54.70;;;;;;4987454;28;20031;-80
2021/04/12 00:06:15;;;;;;;6.10;2.78;;;9.60;54.70;;;;;;4988353;28;20503;-80
2021/04/12 00:08:54;;;;;;;4.60;2.00;;;9.60;54.00;;;;;;4985054;28;20044;-81
2021/04/12 00:11:29;;;;;;;10.60;3.25;;;9.50;67.50;;;;;;4986489;28;20031;-80
2021/04/12 00:14:02;;;;;;;4.10;2.55;;;9.40;54.70;;;;;;4986189;28;20050;-80
2021/04/12 00:16:41;;;;;;;5.75;2.70;;;9.70;76.80;;;;;;4988138;28;20019;-80
2021/04/12 00:19:29;;;;;;;4.88;2.20;;;9.50;70.70;;;;;;4983966;28;20031;-79
2021/04/12 00:22:28;;;;;;;8.73;2.92;;;9.50;75.50;;;;;;4982909;28;20045;-80
2021/04/12 00:25:03;;;;;;;3.95;2.38;;;9.60;53.70;;;;;;4987331;28;20026;-80
2021/04/12 00:27:38;;;;;;;6.63;3.50;;;9.50;76.00;;;;;;4988234;28;20030;-80
2021/04/12 00:30:28;;;;;;;6.10;2.42;;;9.60;52.60;;;;;;4982014;28;20038;-80
2021/04/12 00:33:11;;;;;;;6.80;3.58;;;9.60;75.90;;;;;;4985107;28;20032;-81
2021/04/12 00:35:45;;;;;;;6.38;3.25;;;9.00;76.00;;;;;;4988160;28;20068;-79
2021/04/12 00:38:18;;;;;;;6.18;3.13;;;9.40;70.00;;;;;;4986206;28;20024;-81
2021/04/12 00:40:49;;;;;;;8.50;3.67;;;9.30;54.10;;;;;;4985013;28;20117;-80
2021/04/12 00:43:39;;;;;;;7.15;2.47;;;9.30;54.30;;;;;;4985681;28;20053;-80
2021/04/12 00:46:26;;;;;;;6.82;3.35;;;9.20;60.90;;;;;;4984472;28;20448;-80
2021/04/12 00:48:54;;;;;;;;;;;9.10;54.90;;;;;;4985105;28;20023;-81
2021/04/12 00:51:43;;;;;;;5.32;3.50;;;9.40;62.30;;;;;;4980447;28;19909;-81
2021/04/12 00:54:51;;;;;;;4.80;2.70;;;9.30;74.30;;;;;;4989396;28;20160;-80
2021/04/12 00:57:48;;;;;;;4.85;2.83;;;9.40;52.90;;;;;;4983038;28;20034;-81
2021/04/12 01:00:26;;;;;;;8.55;4.25;;;9.40;53.20;;;;;;4982157;28;20039;-81
2021/04/12 01:03:03;;;;;;;8.18;3.25;;;9.50;76.00;;;;;;4999992;28;20569;-80
2021/04/12 01:05:34;;;;;;;10.63;2.90;;;9.40;52.30;;;;;;4982752;28;20080;-80
2021/04/12 01:08:00;;;;;;;4.03;2.45;;;9.30;62.60;;;;;;4986854;28;20042;-80
2021/04/12 01:10:39;;;;;;;5.47;2.70;;;9.20;52.70;;;;;;4982760;28;20034;-80
2021/04/12 01:13:42;;;;;;;8.75;3.88;;;9.20;52.40;;;;;;4985761;28;20392;-80
2021/04/12 01:16:22;;;;;;;9.27;3.28;;;9.30;74.40;;;;;;4982043;28;20035;-79
2021/04/12 01:19:09;;;;;;;6.93;2.90;;;9.30;52.00;;;;;;4981945;28;20492;-80
2021/04/12 01:21:53;;;;;;;7.00;4.07;;;9.10;52.70;;;;;;4984883;28;20057;-80
2021/04/12 01:24:53;;;;;;;5.45;3.58;;;9.20;52.40;;;;;;5000533;28;20034;-81
2021/04/12 01:27:44;;;;;;;9.70;3.58;;;9.30;52.20;;;;;;4985593;28;20045;-81
2021/04/12 01:30:30;;;;;;;5.78;2.58;;;9.20;57.00;;;;;;4983331;28;20499;-80
2021/04/12 01:33:01;;;;;;;4.35;2.45;;;9.20;50.90;;;;;;4987005;28;20130;-81
2021/04/12 01:35:36;;;;;;;5.35;2.78;;;9.30;70.90;;;;;;4989350;28;20026;-81
2021/04/12 01:38:27;;;;;;;5.55;2.60;;;9.20;48.90;;;;;;4986145;28;20069;-81
2021/04/12 01:40:53;;;;;;;4.32;2.33;;;;;;;;;;4983658;28;20104;-79
2021/04/12 01:43:33;;;;;;;5.20;2.72;;;9.20;48.90;;;;;;4985148;28;20855;-80
2021/04/12 01:46:28;;;;;;;7.63;3.58;;;9.10;48.80;;;;;;4986999;28;20073;-81
2021/04/12 01:48:59;;;;;;;6.13;3.03;;;9.10;48.70;;;;;;4983687;28;20515;-80
2021/04/12 01:51:43;;;;;;;5.72;2.65;;;8.80;67.60;;;;;;4984613;28;20022;-80
2021/04/12 01:54:12;;;;;;;5.25;2.05;;;9.00;71.50;;;;;;4986010;28;20530;-80
2021/04/12 01:56:59;;;;;;;9.48;3.00;;;9.00;48.80;;;;;;4986090;28;20084;-80
2021/04/12 01:59:25;;;;;;;7.00;3.72;;;;;;;;;;4983195;28;20022;-81
2021/04/12 02:02:17;;;;;;;7.95;2.60;;;8.90;48.50;;;;;;4991118;28;20555;-80
2021/04/12 02:05:07;;;;;;;5.55;2.63;;;9.00;49.80;;;;;;4990617;28;20058;-81
2021/04/12 02:08:06;;;;;;;8.23;1.98;;;9.00;50.00;;;;;;5006052;28;20036;-81
2021/04/12 02:10:51;;;;;;;4.72;2.88;;;8.90;51.40;;;;;;5000542;28;20125;-80
2021/04/12 02:13:22;;;;;;;3.47;2.28;;;8.90;59.50;;;;;;4988185;28;20045;-80
2021/04/12 02:15:51;;;;;;;5.93;2.75;;;8.80;49.60;;;;;;4990488;28;20023;-80
2021/04/12 02:18:42;;;;;;;5.53;3.28;;;8.80;48.50;;;;;;4987649;28;20031;-80
2021/04/12 02:21:42;;;;;;;3.38;2.42;;;8.70;49.90;;;;;;4987354;28;20070;-81
2021/04/12 02:24:42;;;;;;;6.57;3.13;;;8.60;50.50;;;;;;4988736;28;20494;-81
2021/04/12 02:27:45;;;;;;;5.95;2.67;;;8.50;58.30;;;;;;4989218;28;20031;-81
2021/04/12 02:30:35;;;;;;;4.25;3.15;;;9.00;50.40;;;;;;4999523;28;20048;-81
2021/04/12 02:33:22;;;;;;;5.88;2.58;;;8.70;74.20;;;;;;4989156;28;20042;-80
2021/04/12 02:36:13;;;;;;;5.93;2.40;;;8.60;59.80;;;;;;4987635;28;20031;-81
2021/04/12 02:39:05;;;;;;;3.10;2.25;;;8.60;51.90;;;;;;4986911;28;20031;-80
2021/04/12 02:41:54;;;;;;;5.18;2.70;;;8.70;52.20;;;;;;4991272;28;20046;-80
2021/04/12 02:44:20;;;;;;;4.65;2.17;;;;;;;;;;4985338;28;20077;-79
2021/04/12 02:47:16;;;;;;;3.78;2.45;;;8.70;55.70;;;;;;4988194;28;20504;-81
2021/04/12 02:50:22;;;;;;;7.88;3.00;;;8.70;50.70;;;;;;4982601;28;20042;-80
2021/04/12 02:53:06;;;;;;;4.22;2.67;;;8.90;50.00;;;;;;4981394;28;20050;-80
2021/04/12 02:55:50;;;;;;;7.47;2.38;;;8.70;52.70;;;;;;4991154;28;20034;-80
2021/04/12 02:58:53;;;;;;;5.70;2.72;;;8.80;51.10;;;;;;4985147;28;20034;-81
2021/04/12 03:01:27;;;;;;;3.88;2.50;;;8.80;74.80;;;;;;4984472;28;20045;-81
2021/04/12 03:04:23;;;;;;;8.98;3.85;;;8.50;52.60;;;;;;4972670;28;20419;-80
2021/04/12 03:07:12;;;;;;;5.50;2.65;;;8.20;52.60;;;;;;4990118;28;20030;-81
2021/04/12 03:10:19;;;;;;;8.02;3.22;;;8.30;56.70;;;;;;4986384;28;20042;-80
2021/04/12 03:12:46;;;;;;;6.97;2.88;;;;;;;;;;4924840;29;20139;-80
2021/04/12 03:15:42;;;;;;;4.25;2.63;;;8.20;53.50;;;;;;4927409;29;20532;-81
2021/04/12 03:18:28;;;;;;;8.05;3.47;;;8.30;52.80;;;;;;4926483;29;20047;-80
2021/04/12 03:21:11;;;;;;;3.20;2.05;;;8.20;53.80;;;;;;4921464;29;20131;-81
2021/04/12 03:24:01;;;;;;;3.88;3.25;;;8.50;76.90;;;;;;4924716;29;20042;-80
2021/04/12 03:27:03;;;;;;;8.27;3.83;;;8.30;53.40;;;;;;4926323;29;20115;-80
2021/04/12 03:30:01;;;;;;;8.70;3.47;;;8.20;53.90;;;;;;4921830;29;20043;-80
2021/04/12 03:33:01;;;;;;;4.28;2.30;;;8.30;53.70;;;;;;4901750;29;20048;-80
2021/04/12 03:35:52;;;;;;;7.80;2.95;;;8.00;76.10;;;;;;4907910;29;20048;-80
2021/04/12 03:39:00;;;;;;;6.07;2.58;;;7.90;66.50;;;;;;4902268;29;20052;-80
2021/04/12 03:41:46;;;;;;;6.30;3.78;;;8.30;53.30;;;;;;4896776;29;20075;-82
2021/04/12 03:44:32;;;;;;;6.93;2.60;;;8.50;52.20;;;;;;4895837;29;20036;-80
2021/04/12 03:47:03;;;;;;;7.30;3.50;;;8.60;52.60;;;;;;4935383;28;20062;-81
2021/04/12 03:49:54;;;;;;;5.18;3.15;;;8.80;49.80;;;;;;4960779;28;20057;-81
2021/04/12 03:52:48;;;;;;;7.68;3.28;;;8.80;50.20;;;;;;4958443;28;20043;-80
2021/04/12 03:55:40;;;;;;;6.18;2.92;;;8.90;50.00;;;;;;4943744;28;20522;-80
2021/04/12 03:58:17;;;;;;;8.68;2.97;;;9.10;71.20;;;;;;4945007;28;20035;-79
2021/04/12 04:01:15;;;;;;;8.55;3.25;;;9.10;48.70;;;;;;4962053;28;20027;-79
2021/04/12 04:04:22;;;;;;;7.93;3.47;;;8.70;54.30;;;;;;4958308;28;20050;-79
2021/04/12 04:07:18;;;;;;;7.72;3.70;;;9.10;48.50;;;;;;4960188;28;20023;-79
2021/04/12 04:10:09;;;;;;;4.38;2.55;;;8.90;70.00;;;;;;4963362;28;20743;-80
2021/04/12 04:12:49;;;;;;;5.85;2.95;;;9.10;48.00;;;;;;4979811;28;20168;-80
2021/04/12 04:15:15;;;;;;;4.40;2.78;;;;;;;;;;4980363;28;20030;-80
2021/04/12 04:17:53;;;;;;;4.85;2.58;;;9.00;47.40;;;;;;4986197;28;20035;-80
2021/04/12 04:20:37;;;;;;;4.10;3.05;;;8.90;47.10;;;;;;4984041;28;20038;-81
2021/04/12 04:23:24;;;;;;;4.90;2.33;;;9.00;57.10;;;;;;4984747;28;20034;-80
2021/04/12 04:25:55;;;;;;;5.20;2.47;;;9.00;47.60;;;;;;4988344;28;20038;-80
2021/04/12 04:28:30;;;;;;;3.13;1.70;;;9.00;46.00;;;;;;4982924;28;20741;-80
2021/04/12 04:31:14;;;;;;;6.45;2.67;;;8.90;47.60;;;;;;4984655;28;20026;-80
2021/04/12 04:33:49;;;;;;;4.75;2.67;;;8.90;46.40;;;;;;4986404;28;20045;-80
2021/04/12 04:36:31;;;;;;;4.07;2.95;;;9.00;46.70;;;;;;4985671;28;20026;-81
2021/04/12 04:39:23;;;;;;;5.85;2.53;;;9.80;48.10;;;;;;4983968;28;20042;-81
2021/04/12 04:42:04;;;;;;;5.53;2.75;;;9.00;47.50;;;;;;4984610;28;20041;-80
2021/04/12 04:45:10;;;;;;;3.72;2.40;;;8.90;47.00;;;;;;4987379;28;20599;-80
2021/04/12 04:48:14;;;;;;;3.00;1.80;;;8.80;46.50;;;;;;4987326;28;20560;-80
2021/04/12 04:50:57;;;;;;;12.45;2.97;;;8.80;46.00;;;;;;4982868;28;20038;-81
2021/04/12 04:53:50;;;;;;;12.98;3.85;;;8.80;69.60;;;;;;4983654;28;20054;-80
2021/04/12 04:56:28;;;;;;;5.05;3.17;;;9.20;49.40;;;;;;4987341;28;20065;-81
2021/04/12 04:59:18;;;;;;;4.88;2.13;;;9.00;46.20;;;;;;4985914;28;20030;-80
2021/04/12 05:02:00;;;;;;;3.17;2.05;;;9.00;45.10;;;;;;4985364;28;20037;-80
2021/04/12 05:04:56;;;;;;;8.57;2.95;;;9.80;62.30;;;;;;4986376;28;20030;-81
2021/04/12 05:08:00;;;;;;;4.18;2.38;;;8.90;56.40;;;;;;4986816;28;20030;-80
2021/04/12 05:10:59;;;;;;;6.45;2.70;;;8.50;65.00;;;;;;4981558;28;20031;-80
2021/04/12 05:13:49;;;;;;;4.30;2.63;;;8.70;48.40;;;;;;4985284;28;20049;-80
2021/04/12 05:16:17;;;;;;;5.28;3.17;;;8.70;47.40;;;;;;4984569;28;20033;-81
2021/04/12 05:19:20;;;;;;;4.60;2.78;;;8.80;46.70;;;;;;4984474;28;20455;-80
2021/04/12 05:22:11;;;;;;;9.07;3.30;;;8.60;47.30;;;;;;4983676;28;20022;-81
2021/04/12 05:25:15;;;;;;;5.32;3.33;;;8.80;47.20;;;;;;4984874;28;20124;-80
2021/04/12 05:28:04;;;;;;;7.03;3.50;;;8.90;51.10;;;;;;4985783;28;20538;-80
2021/04/12 05:31:13;;;;;;;3.53;2.10;;;8.90;47.10;;;;;;4981004;28;20450;-80
2021/04/12 05:34:28;;;;;;;9.20;3.92;;;8.90;63.80;;;;;;4985240;28;20439;-80
2021/04/12 05:37:15;;;;;;;4.05;2.60;;;9.00;46.90;;;;;;5000443;28;20064;-80
2021/04/12 05:40:02;;;;;;;8.35;3.10;;;7.90;46.20;;;;;;4998055;28;20097;-80
2021/04/12 05:43:00;;;;;;;4.07;2.53;;;8.70;48.30;;;;;;5002692;28;20488;-80
2021/04/12 05:45:35;;;;;;;6.22;3.28;;;8.90;47.40;;;;;;5002868;28;20022;-80
2021/04/12 05:48:31;;;;;;;8.70;3.80;;;8.80;47.90;;;;;;4986745;28;20111;-81
2021/04/12 05:51:27;;;;;;;11.15;4.03;;;8.90;70.60;;;;;;4998998;28;20510;-81
2021/04/12 05:53:53;;;;;;;7.18;3.00;;;;;;;;;;4997332;28;20042;-81
2021/04/12 05:56:34;;;;;;;6.18;3.00;;;9.10;48.20;;;;;;5000061;28;20087;-80
2021/04/12 05:59:29;;;;;;;5.53;2.75;;;9.20;47.20;;;;;;4998802;28;20072;-80
2021/04/12 06:02:16;;;;;;;7.20;3.70;;;9.10;47.00;;;;;;4999106;28;20776;-81
2021/04/12 06:04:51;;;;;;;6.40;4.03;;;9.20;47.20;;;;;;5000638;28;20030;-80
2021/04/12 06:07:47;;;;;;;5.07;3.10;;;9.20;69.70;;;;;;5000568;28;20057;-80
2021/04/12 06:10:32;;;;;;;8.50;3.67;;;9.10;47.00;;;;;;4995916;28;20041;-80
2021/04/12 06:13:09;;;;;;;5.75;3.40;;;9.20;53.90;;;;;;4993828;28;20051;-81
2021/04/12 06:15:38;;;;;;;5.82;3.80;;;;;;;;;;4981396;28;20115;-80
2021/04/12 06:18:12;;;;;;;5.95;3.53;;;9.20;46.10;;;;;;4991529;28;20151;-80
2021/04/12 06:20:58;;;;;;;6.70;3.83;;;9.30;46.00;;;;;;4981195;28;20030;-82
2021/04/12 06:23:36;;;;;;;5.82;2.80;;;9.40;45.30;;;;;;4983426;28;20019;-82
2021/04/12 06:26:37;;;;;;;12.93;4.15;;;9.50;45.80;;;;;;4986051;28;20057;-81
2021/04/12 06:29:34;;;;;;;5.90;3.40;;;10.00;46.30;;;;;;4984029;28;20050;-81
2021/04/12 06:32:36;;;;;;;10.00;3.97;;;9.80;46.50;;;;;;4983851;28;20726;-83
2021/04/12 06:35:08;;;;;;;5.35;3.17;;;;;;;;;;4986378;28;20045;-81
2021/04/12 06:37:34;;;;;;;4.40;2.67;;;;;;;;;;4983478;28;20035;-82
2021/04/12 06:40:48;;;;;;;7.53;3.40;;;11.60;42.20;;;;;;4979971;28;20041;-81
2021/04/12 06:43:20;;;;;;;6.63;3.40;;;;;;;;;;4984286;28;20093;-81
2021/04/12 06:45:49;;;;;;;7.50;3.45;;;;;;;;;;4986834;28;20391;-80
2021/04/12 06:48:51;;;;;;;5.82;2.35;;;13.90;38.70;;;;;;4988089;28;20522;-82
2021/04/12 06:52:04;;;;;;;6.53;3.35;;;14.90;49.70;;;;;;4980940;28;20038;-81
2021/04/12 06:54:39;;;;;;;4.68;3.03;;;15.30;49.00;;;;;;4986129;28;20054;-81
2021/04/12 06:57:05;;;;;;;9.82;2.70;;;;;;;;;;4985394;28;20034;-83
2021/04/12 06:59:55;;;;;;;3.55;2.58;;;16.10;51.20;;;;;;4980211;28;20097;-82
2021/04/12 07:02:52;;;;;;;12.65;2.92;;;16.50;30.80;;;;;;4983687;28;20022;-83
2021/04/12 07:05:27;;;;;;;7.32;4.82;;;17.20;41.60;;;;;;4986688;28;20095;-81
2021/04/12 07:08:11;;;;;;;3.60;2.38;;;17.50;29.20;;;;;;4985557;28;20023;-81
2021/04/12 07:10:37;;;;;;;3.53;2.03;;;;;;;;;;4985922;28;20026;-81
2021/04/12 07:13:40;;;;;;;15.90;3.00;;;17.40;34.90;;;;;;4985405;28;20041;-82
2021/04/12 07:16:06;;;;;;;5.18;1.88;;;;;;;;;;4985207;28;20030;-81
2021/04/12 07:18:40;;;;;;;2.45;2.20;;;18.40;29.70;;;;;;4986284;28;20037;-81
2021/04/12 07:21:43;;;;;;;10.95;2.30;;;18.40;36.00;;;;;;4984292;28;20038;-80
2021/04/12 07:24:45;;;;;;;4.35;2.38;;;18.20;26.40;;;;;;4984364;28;20045;-81
2021/04/12 07:27:17;;;;;;;1.10;1.00;;;18.30;26.20;;;;;;4986200;28;20034;-80
2021/04/12 07:30:08;;;;;;;8.13;4.43;;;17.80;26.20;;;;;;4973828;28;20511;-80
2021/04/12 07:33:11;;;;;;;8.32;3.65;;;17.90;25.40;;;;;;4985237;28;20038;-80
2021/04/12 07:36:02;;;;;;;3.72;2.00;;;16.70;28.10;;;;;;4984273;28;20057;-79
2021/04/12 07:39:25;;;;;;;5.13;2.47;;;17.30;30.70;;;;;;4983957;28;20034;-79
2021/04/12 07:42:18;;;;;;;2.40;1.52;;;17.90;25.50;;;;;;4998641;28;20033;-81
2021/04/12 07:45:22;;;;;;;2.00;1.60;;;18.60;25.10;;;;;;5004389;28;20044;-81
2021/04/12 07:48:34;;;;;;;6.38;1.80;;;18.80;22.60;;;;;;4982166;28;20037;-82
2021/04/12 07:51:53;;;;;;;3.28;1.77;;;18.50;22.50;;;;;;4999262;28;20057;-82
2021/04/12 07:54:45;;;;;;;2.75;1.85;;;18.50;22.80;;;;;;4998830;28;20041;-82
2021/04/12 07:57:32;;;;;;;3.33;1.77;;;18.20;22.30;;;;;;5000264;28;20030;-82
2021/04/12 07:59:58;;;;;;;3.20;1.98;;;;;;;;;;5003657;28;20038;-82
2021/04/12 08:02:23;;;;;;;3.00;2.08;;;;;;;;;;5002155;28;20037;-82
2021/04/12 08:05:14;;;;;;;5.60;2.78;;;15.60;25.60;;;;;;5005287;28;20029;-81
2021/04/12 08:08:11;;;;;;;4.72;2.53;;;15.00;26.30;;;;;;5002451;28;20121;-82
2021/04/12 08:10:58;;;;;;;2.92;1.58;;;14.50;26.00;;;;;;4998515;28;20646;-80
2021/04/12 08:13:24;;;;;;;3.05;1.70;;;;;;;;;;4984754;28;20058;-81
2021/04/12 08:16:27;;;;;;;5.75;1.20;;;14.10;26.00;;;;;;4983582;28;20027;-81
2021/04/12 08:19:19;;;;;;;2.95;1.83;;;13.70;25.00;;;;;;4981932;28;20058;-82
2021/04/12 08:22:00;;;;;;;2.60;1.58;;;;;;;;;;4982837;28;20168;-83
2021/04/12 08:25:04;;;;;;;3.17;1.90;;;14.40;27.40;;;;;;4979360;28;20027;-82
2021/04/12 08:28:12;;;;;;;2.08;1.52;;;15.80;24.70;;;;;;4980415;28;20420;-82
2021/04/12 08:30:58;;;;;;;1.98;1.70;;;16.70;23.20;;;;;;4999142;28;20064;-81
2021/04/12 08:33:55;;;;;;;4.37;1.17;;;17.00;23.20;;;;;;5002234;28;20132;-83
2021/04/12 08:36:21;;;;;;;2.42;1.38;;;;;;;;;;5000771;28;20111;-83
2021/04/12 08:39:18;;;;;;;2.25;1.00;;;17.10;44.00;;;;;;4984573;28;20530;-80
2021/04/12 08:41:46;;;;;;;1.63;1.00;;;16.90;22.70;;;;;;4998636;28;20599;-83
2021/04/12 08:44:37;;;;;;;7.55;3.40;;;16.70;23.10;;;;;;5003712;28;20022;-81
2021/04/12 08:47:37;;;;;;;2.55;1.42;;;16.30;40.80;;;;;;5004471;28;20033;-81
2021/04/12 08:50:32;;;;;;;2.30;2.00;;;15.70;23.80;;;;;;4964190;28;20518;-81
2021/04/12 08:53:19;;;;;;;2.70;1.50;;;15.30;40.60;;;;;;4961719;28;20046;-80
2021/04/12 08:56:03;;;;;;;2.17;1.65;;;14.60;42.10;;;;;;4969377;28;20416;-81
2021/04/12 08:58:29;;;;;;;2.97;1.95;;;;;;;;;;4962219;28;20037;-81
2021/04/12 09:00:55;;;;;;;3.40;1.55;;;;;;;;;;4966298;28;20058;-82
2021/04/12 09:03:50;;;;;;;3.38;1.50;;;13.90;30.40;;;;;;4963307;28;20039;-79
2021/04/12 09:06:39;;;;;;;1.65;1.50;;;13.50;27.20;;;;;;4962143;28;20151;-78
2021/04/12 09:09:32;;;;;;;4.03;1.85;;;13.30;26.00;;;;;;4922210;29;20059;-78
2021/04/12 09:11:58;;;;;;;1.77;1.25;;;;;;;;;;4920359;29;20031;-80
2021/04/12 09:15:01;;;;;;;2.60;1.60;;;13.10;28.30;;;;;;4921862;29;21016;-80
2021/04/12 09:17:57;;;;;;;2.33;1.45;;;13.20;45.50;;;;;;4923158;29;20063;-78
2021/04/12 09:20:53;;;;;;;1.30;1.20;;;13.60;25.10;;;;;;4922621;29;20042;-80
2021/04/12 09:23:42;;;;;;;1.65;1.17;;;14.10;26.50;;;;;;4918807;29;20061;-79
2021/04/12 09:26:40;;;;;;;2.67;1.30;;;13.80;24.00;;;;;;4931011;28;20051;-79
2021/04/12 09:29:44;;;;;;;3.40;1.75;;;14.50;24.30;;;;;;4962544;28;20526;-80
2021/04/12 09:32:34;;;;;;;1.60;1.27;;;15.30;24.00;;;;;;4962939;28;20117;-81
2021/04/12 09:35:18;;;;;;;5.47;2.03;;;15.50;35.70;;;;;;4965817;28;20039;-80
2021/04/12 09:37:44;;;;;;;2.72;1.40;;;;;;;;;;4962440;28;20046;-80
2021/04/12 09:40:44;;;;;;;1.52;1.23;;;14.50;38.70;;;;;;4945920;28;20035;-80
2021/04/12 09:43:10;;;;;;;6.55;1.13;;;;;;;;;;4957143;28;20118;-81
2021/04/12 09:46:22;;;;;;;1.35;1.25;;;14.10;25.60;;;;;;4965649;28;20130;-81
2021/04/12 09:48:48;;;;;;;2.05;1.45;;;;;;;;;;4979814;28;20464;-80
2021/04/12 09:51:42;;;;;;;2.55;1.40;;;13.70;26.40;;;;;;4983475;28;20046;-81
2021/04/12 09:54:11;;;;;;;2.13;1.48;;;13.80;26.70;;;;;;4984450;28;20735;-86
2021/04/12 09:56:42;;;;;;;3.70;2.05;;;14.90;48.00;;;;;;4983914;28;20498;-80
2021/04/12 09:59:08;;;;;;;1.95;1.02;;;;;;;;;;4982372;28;20026;-82
2021/04/12 10:01:43;;;;;;;3.10;1.27;;;15.50;42.30;;;;;;4984594;28;20060;-81
2021/04/12 10:04:46;;;;;;;2.63;1.75;;;15.70;24.80;;;;;;4999579;28;20061;-81
2021/04/12 10:07:24;;;;;;;1.40;1.25;;;;;;;;;;4983239;28;20056;-80
2021/04/12 10:10:15;;;;;;;1.63;1.52;;;17.60;25.20;;;;;;4984794;28;20034;-81
2021/04/12 10:12:50;;;;;;;1.80;1.30;;;18.30;21.60;;;;;;4981699;28;20032;-80
2021/04/12 10:15:22;;;;;;;2.17;1.30;;;19.10;30.70;;;;;;4984795;28;20543;-80
2021/04/12 10:18:04;;;;;;;4.95;1.75;;;19.70;20.30;;;;;;4987051;28;20030;-81
2021/04/12 10:20:35;;;;;;;1.38;0.80;;;19.40;18.80;;;;;;4985398;28;20039;-81
2021/04/12 10:23:24;;;;;;;1.17;1.08;;;19.30;20.10;;;;;;4985654;28;20042;-80
2021/04/12 10:26:04;;;;;;;1.95;1.25;;;19.40;20.10;;;;;;4986775;28;20042;-80
2021/04/12 10:28:41;;;;;;;4.15;0.90;;;19.50;32.80;;;;;;4983261;28;20046;-80
2021/04/12 10:31:31;;;;;;;5.47;1.30;;;19.50;37.30;;;;;;5000416;28;20372;-78
2021/04/12 10:34:21;;;;;;;2.38;1.45;;;19.60;28.60;;;;;;4985353;28;20543;-80
2021/04/12 10:37:08;;;;;;;2.72;1.17;;;19.50;36.60;;;;;;4986130;28;20092;-80
2021/04/12 10:39:39;;;;;;;1.48;1.33;;;19.80;18.80;;;;;;4984970;28;20042;-80
2021/04/12 10:42:08;;;;;;;1.35;1.10;;;18.80;19.60;;;;;;4985341;28;20035;-81
2021/04/12 10:44:40;;;;;;;0.98;0.82;;;17.90;19.50;;;;;;4986103;28;20030;-80
2021/04/12 10:47:24;;;;;;;1.63;1.02;;;17.60;20.40;;;;;;4988998;28;20105;-80
2021/04/12 10:49:50;;;;;;;3.05;1.17;;;;;;;;;;4987699;28;20034;-79
2021/04/12 10:52:34;;;;;;;1.95;1.10;;;18.40;21.20;;;;;;4981268;28;20074;-79
2021/04/12 10:55:14;;;;;;;1.60;1.17;;;18.40;21.70;;;;;;4987297;28;20045;-80
2021/04/12 10:57:48;;;;;;;2.15;1.13;;;18.20;20.20;;;;;;4987437;28;20037;-80
2021/04/12 11:00:14;;;;;;;2.15;1.52;;;;;;;;;;4986986;28;20077;-79
2021/04/12 11:02:40;;;;;;;1.15;0.75;;;;;;;;;;4987298;28;20053;-79
2021/04/12 11:05:06;;;;;;;2.25;1.45;;;;;;;;;;4989934;28;20030;-80
2021/04/12 11:07:53;;;;;;;1.13;1.00;;;16.80;21.10;;;;;;4986831;28;20034;-81
2021/04/12 11:10:19;;;;;;;1.13;0.93;;;;;;;;;;4986303;28;20034;-79
2021/04/12 11:13:17;;;;;;;1.60;0.85;;;16.70;20.60;;;;;;4986335;28;20034;-80
2021/04/12 11:16:33;;;;;;;1.05;0.95;;;16.00;28.30;;;;;;4984458;28;20054;-80
2021/04/12 11:19:31;;;;;;;1.42;1.33;;;16.50;22.10;;;;;;4924831;29;20429;-80
2021/04/12 11:22:42;;;;;;;3.17;1.88;;;16.50;21.50;;;;;;4924203;29;20627;-80
2021/04/12 11:25:40;;;;;;;3.08;1.13;;;16.40;21.60;;;;;;4926030;29;20035;-81
2021/04/12 11:28:11;;;;;;;1.92;0.95;;;16.30;21.10;;;;;;4904423;29;20287;-81
2021/04/12 11:30:54;;;;;;;3.72;0.93;;;15.70;26.00;;;;;;4924441;29;20574;-81
2021/04/12 11:33:43;;;;;;;2.30;1.33;;;16.00;21.90;;;;;;4906420;29;20047;-81
2021/04/12 11:36:13;;;;;;;2.33;1.00;;;;;;;;;;4925131;29;20087;-80
2021/04/12 11:38:56;;;;;;;2.05;1.08;;;15.60;21.00;;;;;;4924979;29;20038;-82
2021/04/12 11:41:29;;;;;;;1.25;0.95;;;;;;;;;;4909447;29;20032;-81
2021/04/12 11:43:58;;;;;;;2.92;1.08;;;15.70;22.20;;;;;;4925504;29;20034;-81
2021/04/12 11:46:48;;;;;;;0.80;0.50;;;15.80;24.40;;;;;;4922450;29;20036;-81
2021/04/12 11:49:26;;;;;;;5.65;1.23;;;14.00;23.20;;;;;;4922039;29;20509;-81
2021/04/12 11:52:04;;;;;;;1.23;0.93;;;15.90;22.40;;;;;;4920046;28;20539;-81
2021/04/12 11:54:56;;;;;;;1.98;1.20;;;15.80;21.20;;;;;;4977676;28;20050;-80
2021/04/12 11:57:46;;;;;;;1.17;1.02;;;15.30;21.90;;;;;;4984185;28;20084;-80
2021/04/12 12:00:28;;;;;;;4.15;0.50;;;15.10;20.80;;;;;;4984951;28;20038;-80
2021/04/12 12:03:00;;;;;;;0.68;0.65;;;;;;;;;;4983273;28;20045;-80
2021/04/12 12:05:39;;;;;;;2.10;1.02;;;14.80;20.70;;;;;;4985648;28;20042;-78
2021/04/12 12:08:44;;;;;;;0.75;0.73;;;14.40;39.50;;;;;;4986481;28;20030;-81
2021/04/12 12:11:38;;;;;;;2.30;0.75;;;14.60;20.60;;;;;;4982557;28;20048;-79
2021/04/12 12:14:25;;;;;;;0.98;0.88;;;14.80;21.20;;;;;;4997949;28;20494;-79
2021/04/12 12:16:55;;;;;;;1.65;1.13;;;14.40;23.10;;;;;;5005414;28;20033;-81
2021/04/12 12:19:52;;;;;;;1.00;0.90;;;14.20;21.50;;;;;;5001843;28;20038;-80
2021/04/12 12:22:43;;;;;;;1.10;0.77;;;14.10;22.40;;;;;;5000411;28;20034;-81
2021/04/12 12:25:24;;;;;;;2.85;1.35;;;14.20;23.40;;;;;;5000263;28;20038;-82
2021/04/12 12:28:12;;;;;;;0.75;0.75;;;14.00;22.20;;;;;;5002552;28;20030;-81
2021/04/12 12:30:38;;;;;;;1.13;0.93;;;;;;;;;;5000386;28;21641;-81
2021/04/12 12:33:38;;;;;;;1.38;1.00;;;14.30;27.50;;;;;;5002789;28;20064;-80
2021/04/12 12:36:46;;;;;;;1.48;1.02;;;14.30;41.20;;;;;;5000974;28;20033;-81
2021/04/12 12:39:12;;;;;;;2.47;0.93;;;;;;;;;;5001717;28;20733;-85
2021/04/12 12:41:43;;;;;;;2.65;1.45;;;14.00;20.30;;;;;;4997196;28;20031;-81
2021/04/12 12:44:11;;;;;;;1.17;0.77;;;13.80;21.20;;;;;;5004530;28;20065;-82
2021/04/12 12:46:39;;;;;;;1.08;0.85;;;13.60;21.20;;;;;;4993699;28;20037;-81
2021/04/12 12:49:19;;;;;;;1.60;0.88;;;13.60;26.30;;;;;;4982015;28;20451;-80
2021/04/12 12:51:45;;;;;;;0.82;0.70;;;;;;;;;;4987274;28;20407;-82
2021/04/12 12:54:21;;;;;;;1.23;0.70;;;13.90;40.90;;;;;;4986311;28;20034;-80
2021/04/12 12:56:49;;;;;;;1.92;1.20;;;13.70;21.10;;;;;;4981740;28;20519;-80
2021/04/12 12:59:20;;;;;;;2.13;1.10;;;13.80;20.80;;;;;;4985265;28;20427;-82
2021/04/12 13:01:47;;;;;;;1.63;0.80;;;13.70;20.90;;;;;;4984954;28;20511;-81
2021/04/12 13:04:26;;;;;;;1.20;0.80;;;13.70;39.20;;;;;;4985194;28;20072;-80
2021/04/12 13:06:54;;;;;;;1.25;0.90;;;13.90;19.60;;;;;;4986271;28;20049;-79
2021/04/12 13:09:21;;;;;;;1.55;0.95;;;;;;;;;;4987868;28;20057;-81
2021/04/12 13:12:06;;;;;;;0.88;0.80;;;14.10;20.70;;;;;;4984464;28;20377;-83
2021/04/12 13:14:40;;;;;;;1.52;0.80;;;13.90;21.20;;;;;;4980884;28;20030;-80
2021/04/12 13:17:30;;;;;;;0.57;0.57;;;13.70;30.00;;;;;;4987570;28;20117;-81
2021/04/12 13:20:19;;;;;;;1.75;1.15;;;13.70;21.30;;;;;;4985205;28;20034;-82
2021/04/12 13:22:50;;;;;;;1.65;1.15;;;13.40;22.60;;;;;;4985661;28;20041;-83
2021/04/12 13:25:40;;;;;;;2.00;1.00;;;13.60;21.00;;;;;;4986179;28;20034;-81
2021/04/12 13:28:13;;;;;;;6.72;1.23;;;13.60;20.60;;;;;;4984497;28;20518;-79
2021/04/12 13:30:45;;;;;;;5.32;1.20;;;13.40;19.80;;;;;;4984243;28;20026;-82
2021/04/12 13:33:35;;;;;;;2.78;1.80;;;13.40;20.50;;;;;;4981823;28;20038;-81
2021/04/12 13:36:13;;;;;;;1.38;1.00;;;13.60;22.60;;;;;;4983423;28;20045;-82
2021/04/12 13:38:41;;;;;;;1.35;1.05;;;13.60;20.50;;;;;;4984297;28;20030;-82
2021/04/12 13:41:18;;;;;;;2.00;1.15;;;13.50;23.40;;;;;;4983570;28;20444;-82
2021/04/12 13:43:47;;;;;;;2.03;0.82;;;13.60;22.80;;;;;;4990555;28;20053;-81
2021/04/12 13:46:27;;;;;;;1.20;1.10;;;13.80;22.30;;;;;;4979107;28;20027;-82
2021/04/12 13:49:12;;;;;;;2.00;0.80;;;13.90;22.40;;;;;;4982220;28;20037;-83
2021/04/12 13:51:54;;;;;;;1.65;0.70;;;14.00;21.90;;;;;;4972947;28;20136;-81
2021/04/12 13:54:27;;;;;;;2.58;0.90;;;14.80;23.50;;;;;;4979877;28;20423;-81
2021/04/12 13:57:01;;;;;;;2.78;1.02;;;13.80;21.90;;;;;;4985830;28;20365;-81
2021/04/12 13:59:27;;;;;;;3.75;1.00;;;;;;;;;;4983319;28;20030;-79
2021/04/12 14:01:54;;;;;;;1.35;0.80;;;;;;;;;;4984475;28;20084;-81
2021/04/12 14:04:26;;;;;;;1.08;1.00;;;14.10;22.70;;;;;;4981650;28;20030;-81
2021/04/12 14:06:52;;;;;;;4.22;0.75;;;;;;;;;;4985586;28;20030;-79
2021/04/12 14:09:35;;;;;;;2.72;0.93;;;14.30;21.50;;;;;;4982960;28;20031;-81
2021/04/12 14:12:22;;;;;;;0.75;0.75;;;14.30;21.60;;;;;;4983293;28;20431;-81
2021/04/12 14:14:48;;;;;;;1.42;1.00;;;;;;;;;;4983614;28;20038;-80
2021/04/12 14:17:29;;;;;;;3.17;1.00;;;14.10;23.30;;;;;;4985167;28;20027;-81
2021/04/12 14:20:24;;;;;;;0.68;0.68;;;14.20;23.40;;;;;;4982941;28;20070;-80
2021/04/12 14:22:53;;;;;;;1.30;0.88;;;14.10;22.60;;;;;;4980883;28;20049;-80
2021/04/12 14:25:41;;;;;;;1.10;0.65;;;13.90;22.50;;;;;;4982211;28;20466;-81
2021/04/12 14:28:18;;;;;;;0.90;0.80;;;13.60;22.90;;;;;;4981183;28;20620;-82
2021/04/12 14:30:49;;;;;;;0.85;0.70;;;13.70;41.70;;;;;;4983510;28;20505;-82
2021/04/12 14:33:21;;;;;;;4.28;0.98;;;13.40;21.80;;;;;;4984932;28;20392;-82
2021/04/12 14:35:49;;;;;;;1.15;1.05;;;13.30;21.50;;;;;;4985145;28;20113;-83